ENLK Airport Information

Runway Information
Runway 03 Length 2881 ft width 98 ft
Elevation 71 ft Threshold ft Heading 24
Runway 21 Length 2881 ft Width 98 ft
Elevation 72 ft Threshold ft Heading 204
Airport Frequencies
Airport Navaids
Type NDB Name Sandsund Frequency 348 KHZ
Airport Weather Information & NOTAM
ADDS - METARS form results

(0748 UTC 16 August 2022)
Data provider http://aviationweather.gov/metar/data/
 
METAR text: ENLK 160720Z 00000KT 9999 -SHRA FEW020 SCT060 18/17 Q1006
Conditions at: ENLK (LEKNES , NO) observed 0720 UTC 16 August 2022
Temperature: 18.0°C (64°F)
Dewpoint: 17.0°C (63°F) [RH = 94%]
Pressure (altimeter): 29.70 inches Hg (1006.0 mb)
Winds: calm
Visibility: 6 or more miles (10+ km)
Ceiling: at least 12,000 feet AGL
Clouds: few clouds at 2000 feet AGL
scattered clouds at 6000 feet AGL
Weather: -SHRA  (light rain showers)